createdAt,value
2023-02-03T00:00:02.807Z,2614.19
2023-02-03T00:05:02.771Z,1888.299
2023-02-03T00:10:02.809Z,168.044
2023-02-03T00:15:02.943Z,171.388
2023-02-03T00:20:03.517Z,512.191
2023-02-03T00:25:02.803Z,199.77100000000002
2023-02-03T00:30:02.781Z,246.06
2023-02-03T00:35:02.807Z,1733.624
2023-02-03T00:40:02.778Z,2389.239
2023-02-03T00:45:02.880Z,2352.964
2023-02-03T00:50:02.857Z,1799.998
2023-02-03T00:55:02.844Z,2543.952
2023-02-03T01:00:02.819Z,2383.559
2023-02-03T01:05:02.827Z,2542.006
2023-02-03T01:10:02.838Z,2551.018
2023-02-03T01:15:02.878Z,1608.3890000000001
2023-02-03T01:20:03.295Z,305.11400000000003
2023-02-03T01:25:02.820Z,318.806
2023-02-03T01:30:02.862Z,273.60200000000003
2023-02-03T01:35:02.884Z,196.117
2023-02-03T01:40:02.822Z,195.535
2023-02-03T01:45:02.865Z,836.5310000000001
2023-02-03T01:50:02.864Z,2287.1440000000002
2023-02-03T01:55:02.947Z,2586.734
2023-02-03T02:00:02.881Z,2324.989
2023-02-03T02:05:02.856Z,2419.389
2023-02-03T02:10:02.862Z,2420.795
2023-02-03T02:15:02.893Z,1910.93
2023-02-03T02:20:03.616Z,2418.302
2023-02-03T02:25:02.880Z,2406.89
2023-02-03T02:30:02.921Z,2765.056
2023-02-03T02:35:02.904Z,739.6080000000001
2023-02-03T02:40:02.884Z,324.979
2023-02-03T02:45:02.910Z,408.151
2023-02-03T02:50:03.023Z,318.416
2023-02-03T02:55:02.916Z,1029.997
2023-02-03T03:00:02.937Z,2426.413
2023-02-03T03:05:02.958Z,2319.8830000000003
2023-02-03T03:10:02.862Z,2331.772
2023-02-03T03:15:02.898Z,2330.984
2023-02-03T03:20:03.768Z,2323.852
2023-02-03T03:25:03.042Z,1440.027
2023-02-03T03:30:03.026Z,478.882
2023-02-03T03:35:02.928Z,361.27
2023-02-03T03:40:02.971Z,312.291
2023-02-03T03:45:02.949Z,308.567
2023-02-03T03:50:02.973Z,247.87
2023-02-03T03:55:02.996Z,2171.901
2023-02-03T04:00:02.971Z,1598.566
2023-02-03T04:05:02.984Z,2490.521
2023-02-03T04:10:02.959Z,2294.64
2023-02-03T04:15:02.999Z,2384.242
2023-02-03T04:20:03.644Z,2635.218
2023-02-03T04:25:02.984Z,2440.632
2023-02-03T04:30:02.989Z,2452.763
2023-02-03T04:35:02.984Z,2435.897
2023-02-03T04:40:02.975Z,2615.609
2023-02-03T04:45:03.052Z,1641.807
2023-02-03T04:50:03.084Z,217.675
2023-02-03T04:55:03.037Z,203.592
2023-02-03T05:00:02.997Z,176.602
2023-02-03T05:05:03.062Z,484.959
2023-02-03T05:10:03.001Z,372.809
2023-02-03T05:15:03.068Z,285.843
2023-02-03T05:20:03.786Z,2302.018
2023-02-03T05:25:03.053Z,2085.187
2023-02-03T05:30:03.201Z,2014.32
2023-02-03T05:35:03.073Z,2460.311
2023-02-03T05:40:03.054Z,2366.2110000000002
2023-02-03T05:45:03.042Z,2394.928
2023-02-03T05:50:03.101Z,2523.7960000000003
2023-02-03T05:55:03.167Z,2820.906
2023-02-03T06:00:03.086Z,2619.494
2023-02-03T06:05:03.120Z,2765.208
2023-02-03T06:10:03.102Z,2722.3630000000003
2023-02-03T06:15:03.073Z,3007.463
2023-02-03T06:20:03.752Z,2724.3940000000002
2023-02-03T06:25:03.072Z,2779.17
2023-02-03T06:30:03.120Z,2898.436
2023-02-03T06:35:03.102Z,2509.904
2023-02-03T06:40:03.115Z,2835.474
2023-02-03T06:45:03.147Z,3089.406
2023-02-03T06:50:03.193Z,1771.353
2023-02-03T06:55:03.190Z,353.366
2023-02-03T07:00:03.195Z,303.174
2023-02-03T07:05:03.084Z,295.651
2023-02-03T07:10:03.234Z,1197.636
2023-02-03T07:15:03.169Z,2398.136
2023-02-03T07:20:03.063Z,2390.272
2023-02-03T07:25:00.773Z,2494.86
2023-02-03T07:30:00.810Z,2895.045
2023-02-03T07:35:00.715Z,2199.834
2023-02-03T07:40:00.763Z,2474.88
2023-02-03T07:45:00.801Z,2676.742
2023-02-03T07:50:00.813Z,322.842
2023-02-03T07:55:00.843Z,322.647
2023-02-03T08:00:00.824Z,322.209
2023-02-03T08:05:00.905Z,318.962
2023-02-03T08:10:00.850Z,322.883
2023-02-03T08:15:00.852Z,532.076
2023-02-03T08:20:03.608Z,674.94
2023-02-03T08:25:00.957Z,1791.789
2023-02-03T08:30:00.888Z,2435.083
2023-02-03T08:35:00.928Z,2436.0750000000003
2023-02-03T08:40:00.893Z,2657.373
2023-02-03T08:45:02.332Z,2128.942
2023-02-03T08:50:00.960Z,515.863
2023-02-03T08:55:00.950Z,1109.742
2023-02-03T09:00:01.014Z,2182.515
2023-02-03T09:05:01.015Z,769.236
2023-02-03T09:10:00.975Z,388.984
2023-02-03T09:15:01.052Z,296.63
2023-02-03T09:20:03.782Z,238.525
2023-02-03T09:25:01.042Z,237.643
2023-02-03T09:30:00.966Z,242.345
2023-02-03T09:35:01.040Z,586.508
2023-02-03T09:40:01.031Z,2133.486
2023-02-03T09:45:00.980Z,2417.567
2023-02-03T09:50:01.143Z,2836.824
2023-02-03T09:55:01.056Z,2993.857
2023-02-03T10:00:01.037Z,1590.558
2023-02-03T10:05:01.047Z,264.846
2023-02-03T10:10:01.024Z,263.29
2023-02-03T10:15:01.023Z,266.736
2023-02-03T10:20:03.680Z,251.409
2023-02-03T10:25:01.199Z,244.292
2023-02-03T10:30:00.873Z,243.363
2023-02-03T10:35:00.892Z,521.979
2023-02-03T10:40:01.092Z,601.227
2023-02-03T10:45:01.101Z,345.587
2023-02-03T10:50:00.885Z,270.817
2023-02-03T10:55:01.181Z,1582.0040000000001
2023-02-03T11:00:01.098Z,2922.686
2023-02-03T11:05:01.086Z,3091.099
2023-02-03T11:10:01.113Z,2397.751
2023-02-03T11:15:01.138Z,2734.949
2023-02-03T11:20:03.560Z,2078.068
2023-02-03T11:25:01.109Z,692.8580000000001
2023-02-03T11:30:01.085Z,346.494
2023-02-03T11:35:01.074Z,308.172
2023-02-03T11:40:01.145Z,239.425
2023-02-03T11:45:01.148Z,235.01
2023-02-03T11:50:01.134Z,238.671
2023-02-03T11:55:01.276Z,252.96
2023-02-03T12:00:01.117Z,277.963
2023-02-03T12:05:01.339Z,1496.676
2023-02-03T12:10:01.137Z,881.5980000000001
2023-02-03T12:15:01.221Z,1576.156
2023-02-03T12:20:03.394Z,2436.532
2023-02-03T12:25:01.129Z,2341.783
2023-02-03T12:30:01.221Z,2362.5950000000003
2023-02-03T12:35:01.133Z,2519.611
2023-02-03T12:40:01.358Z,2381.107
2023-02-03T12:45:01.145Z,2752.1130000000003
2023-02-03T12:50:01.271Z,765.2620000000001
2023-02-03T12:55:01.185Z,577.032
2023-02-03T13:00:01.134Z,575.6750000000001
2023-02-03T13:05:01.133Z,701.689
2023-02-03T13:15:01.319Z,284.493
2023-02-03T13:20:03.457Z,286.599
2023-02-03T13:25:01.073Z,1869.04
2023-02-03T13:30:01.056Z,2348.205
2023-02-03T13:35:01.054Z,2717.8830000000003
2023-02-03T13:40:01.065Z,2430.56
2023-02-03T13:45:01.062Z,2926.422
2023-02-03T13:50:01.189Z,1400.172
2023-02-03T13:55:01.168Z,402.723
2023-02-03T14:00:01.057Z,307.089
2023-02-03T14:05:01.102Z,306.235
2023-02-03T14:10:01.039Z,308.04
2023-02-03T14:15:01.074Z,323.168
2023-02-03T14:20:03.688Z,324.605
2023-02-03T14:25:01.086Z,2914.473
2023-02-03T14:30:01.145Z,2587.869
2023-02-03T14:35:01.059Z,2509.838
2023-02-03T14:40:01.096Z,2529.6150000000002
2023-02-03T14:45:01.112Z,1063.609
2023-02-03T14:50:01.184Z,303.702
2023-02-03T14:55:01.163Z,302.75100000000003
2023-02-03T15:00:01.129Z,305.02500000000003
2023-02-03T15:05:01.136Z,304.741
2023-02-03T15:10:01.110Z,303.743
2023-02-03T15:15:01.086Z,343.28000000000003
2023-02-03T15:20:04.352Z,2260.367
2023-02-03T15:25:01.115Z,2470.0190000000002
2023-02-03T15:30:01.124Z,2444.631
2023-02-03T15:35:01.129Z,3440.784
2023-02-03T15:40:01.153Z,2464.088
2023-02-03T15:45:01.312Z,2654.618
2023-02-03T15:50:01.159Z,2756.485
2023-02-03T15:55:01.235Z,352.925
2023-02-03T16:00:55.230Z,350.00100000000003
2023-02-03T16:05:01.178Z,419.454
2023-02-03T16:10:02.300Z,422.17
2023-02-03T16:15:01.176Z,421.011
2023-02-03T16:20:03.680Z,289.329
2023-02-03T16:25:01.290Z,327.204
2023-02-03T16:30:01.205Z,2264.817
2023-02-03T18:20:01.154Z,451.589
2023-02-03T18:30:06.336Z,435.045
2023-02-03T18:35:01.131Z,472.12
2023-02-03T18:40:01.103Z,475.463
2023-02-03T18:45:00.965Z,460.587
2023-02-03T18:50:01.063Z,4417.52
2023-02-03T18:55:01.069Z,6837.6630000000005
2023-02-03T19:00:01.220Z,6847.8
2023-02-03T19:05:01.177Z,6849.636
2023-02-03T19:10:01.106Z,6849.892
2023-02-03T19:15:01.168Z,6854.197
2023-02-03T19:20:01.159Z,6930.8640000000005
2023-02-03T19:25:01.053Z,7022.206
2023-02-03T19:30:01.312Z,3011.58
2023-02-03T19:35:01.101Z,3152.605
2023-02-03T19:40:01.087Z,1977.0240000000001
2023-02-03T19:45:01.092Z,2564.647
2023-02-03T19:50:01.054Z,2443.781
2023-02-03T19:55:01.262Z,2451.1
2023-02-03T20:00:01.129Z,2455.988
2023-02-03T20:05:01.163Z,2548.486
2023-02-03T20:10:01.058Z,2607.0170000000003
2023-02-03T20:15:01.092Z,2555.179
2023-02-03T20:20:01.239Z,2510.145
2023-02-03T20:25:01.083Z,2459.55
2023-02-03T20:30:01.252Z,2366.233
2023-02-03T20:35:01.173Z,2179.122
2023-02-03T20:40:01.132Z,2599.25
2023-02-03T20:45:01.249Z,2587.262
2023-02-03T20:50:01.067Z,2809.032
2023-02-03T20:55:01.097Z,1965.779
2023-02-03T21:00:01.179Z,448.79200000000003
2023-02-03T21:05:01.261Z,407.56100000000004
2023-02-03T21:10:01.205Z,333.185
2023-02-03T21:15:01.117Z,331.369
2023-02-03T21:20:01.195Z,351.254
2023-02-03T21:25:01.316Z,1034.997
2023-02-03T21:30:01.349Z,2376.975
2023-02-03T21:35:01.235Z,2399.1
2023-02-03T21:40:01.110Z,2516.536
2023-02-03T21:45:01.286Z,2529.699
2023-02-03T21:50:01.180Z,2527.734
2023-02-03T21:55:01.265Z,2365.069
2023-02-03T22:00:01.239Z,2238.735
2023-02-03T22:05:01.315Z,2519.097
2023-02-03T22:10:01.348Z,2958.973
2023-02-03T22:15:01.181Z,2495.3250000000003
2023-02-03T22:20:01.210Z,2690.869
2023-02-03T22:25:01.173Z,325.621
2023-02-03T22:30:01.440Z,321.369
2023-02-03T22:35:01.294Z,314.87600000000003
2023-02-03T22:40:01.294Z,209.394
2023-02-03T22:45:01.191Z,6465.7970000000005
2023-02-03T22:50:01.370Z,6836.526
2023-02-03T22:55:01.444Z,6831.679
2023-02-03T23:00:01.350Z,3992.391
2023-02-03T23:05:01.306Z,3492.939
2023-02-03T23:10:01.181Z,7021.110000000001
2023-02-03T23:15:01.383Z,6601.758
2023-02-03T23:20:01.333Z,7166.57
2023-02-03T23:25:01.230Z,6956.023
2023-02-03T23:30:01.359Z,6965.43
2023-02-03T23:35:01.385Z,7326.392
2023-02-03T23:40:01.417Z,5065.51
2023-02-03T23:45:01.231Z,4726.6
2023-02-03T23:50:01.268Z,4746.537
2023-02-03T23:55:01.349Z,4791.771
